Time;durP1;ratioP1;P1;durP2;ratioP2;P2;SDS_P1;SDS_P2;PMS_P1;PMS_P2;Temp;Humidity;BMP_temperature;BMP_pressure;BME280_temperature;BME280_humidity;BME280_pressure;Samples;Min_cycle;Max_cycle;Signal;HPM_P1;HPM_P2
2021/09/17 00:00:48;;;;;;;;;3.00;3.00;;;;;27.69;73.44;98887.97;6215064;23;8795;-76
2021/09/17 00:03:17;;;;;;;;;2.50;2.50;;;;;27.74;73.33;98892.28;6215147;23;9607;-76
2021/09/17 00:05:46;;;;;;;;;3.50;3.50;;;;;27.75;73.04;98886.47;6214848;23;9531;-76
2021/09/17 00:08:14;;;;;;;;;2.25;2.25;;;;;27.81;73.00;98898.53;6215654;23;8818;-76
2021/09/17 00:10:43;;;;;;;;;1.75;1.75;;;;;27.86;73.11;98906.28;6214752;23;9574;-76
2021/09/17 00:13:11;;;;;;;;;2.50;2.50;;;;;27.91;72.74;98905.16;6214819;23;9513;-76
2021/09/17 00:15:40;;;;;;;;;2.50;2.50;;;;;27.91;72.36;98905.94;6214580;23;8898;-76
2021/09/17 00:18:08;;;;;;;;;2.75;2.75;;;;;27.87;71.91;98898.94;6214806;23;8799;-76
2021/09/17 00:20:37;;;;;;;;;4.25;4.25;;;;;28.04;71.68;98919.97;6214378;23;8799;-76
2021/09/17 00:23:05;;;;;;;;;4.25;4.25;;;;;28.12;71.76;98937.81;6217185;23;8791;-76
2021/09/17 00:25:34;;;;;;;;;4.75;4.75;;;;;28.15;71.67;98933.59;6216620;23;8819;-76
2021/09/17 00:28:03;;;;;;;;;2.00;2.00;;;;;28.21;71.52;98940.97;6214522;23;8811;-75
2021/09/17 00:30:32;;;;;;;;;4.00;4.00;;;;;28.21;71.27;98930.13;6214629;23;8787;-76
2021/09/17 00:33:01;;;;;;;;;2.75;2.75;;;;;28.29;71.09;98941.81;6214357;23;9644;-76
2021/09/17 00:35:29;;;;;;;;;4.25;4.25;;;;;28.34;70.95;98937.97;6214652;23;8872;-76
2021/09/17 00:37:58;;;;;;;;;4.00;4.00;;;;;28.39;71.06;98948.47;6214712;23;8803;-77
2021/09/17 00:40:26;;;;;;;;;3.50;3.50;;;;;28.42;71.09;98953.13;6214526;23;8803;-75
2021/09/17 00:42:55;;;;;;;;;2.00;2.00;;;;;28.45;70.74;98938.81;6214578;23;8873;-75
2021/09/17 00:45:23;;;;;;;;;2.25;2.25;;;;;28.49;70.86;98940.38;6214458;23;8788;-75
2021/09/17 00:47:52;;;;;;;;;2.00;2.00;;;;;28.53;70.33;98941.16;6213709;23;8811;-76
2021/09/17 00:50:22;;;;;;;;;2.00;2.00;;;;;28.54;70.50;98939.22;6213840;23;8873;-77
2021/09/17 00:52:51;;;;;;;;;1.20;1.20;;;;;28.60;70.06;98950.50;6214307;23;8814;-75
2021/09/17 00:55:20;;;;;;;;;2.00;2.00;;;;;28.65;69.52;98953.59;6214396;23;9559;-76
2021/09/17 00:57:49;;;;;;;;;1.60;1.60;;;;;28.68;69.64;98955.53;6214200;23;8799;-76
2021/09/17 01:00:18;;;;;;;;;1.20;1.20;;;;;28.71;69.72;98957.50;6214838;23;8787;-76
2021/09/17 01:02:46;;;;;;;;;2.00;2.00;;;;;28.77;69.36;98966.81;6214762;23;8806;-76
2021/09/17 01:05:16;;;;;;;;;1.60;1.60;;;;;28.80;69.17;98954.44;6214721;23;8815;-73
2021/09/17 01:07:45;;;;;;;;;1.00;1.00;;;;;28.77;69.21;98960.63;6214187;23;8897;-73
2021/09/17 01:10:15;;;;;;;;;1.40;1.40;;;;;28.78;69.55;98954.03;6219091;23;8799;-77
2021/09/17 01:12:45;;;;;;;;;1.40;1.40;;;;;28.82;69.33;98957.53;6216054;23;8795;-76
2021/09/17 01:15:13;;;;;;;;;1.20;1.20;;;;;28.85;69.44;98954.84;6214632;23;8787;-73
2021/09/17 01:17:44;;;;;;;;;0.80;0.80;;;;;28.92;68.75;98956.03;6214979;23;8807;-74
2021/09/17 01:20:16;;;;;;;;;1.00;1.00;;;;;28.98;68.85;98959.94;6214149;23;8802;-73
2021/09/17 01:22:47;;;;;;;;;1.20;1.20;;;;;29.02;68.56;98956.06;6214335;23;8838;-75
2021/09/17 01:25:19;;;;;;;;;2.00;2.00;;;;;29.07;68.50;98952.97;6214139;23;8815;-75
2021/09/17 01:27:50;;;;;;;;;3.00;3.00;;;;;29.12;68.85;98951.81;6213887;23;8807;-75
2021/09/17 01:30:22;;;;;;;;;1.00;1.00;;;;;29.18;68.69;98959.22;6214455;23;8803;-76
2021/09/17 01:32:51;;;;;;;;;2.40;2.40;;;;;29.23;67.98;98958.84;6214189;23;8795;-75
2021/09/17 01:35:21;;;;;;;;;1.80;1.80;;;;;29.29;67.70;98953.78;6215178;23;8876;-75
2021/09/17 01:37:51;;;;;;;;;1.00;1.00;;;;;29.33;68.01;98957.28;6214751;23;8851;-75
2021/09/17 01:40:20;;;;;;;;;2.80;2.80;;;;;29.31;68.11;98947.97;6215239;23;8788;-75
2021/09/17 01:42:49;;;;;;;;;1.80;1.80;;;;;29.29;67.82;98959.22;6216095;23;8807;-75
2021/09/17 01:45:17;;;;;;;;;1.80;1.80;;;;;29.27;67.72;98969.69;6190216;23;8783;-75
2021/09/17 01:47:45;;;;;;;;;2.00;2.00;;;;;29.25;68.07;98965.81;6215996;23;8811;-74
2021/09/17 01:50:14;;;;;;;;;2.00;2.00;;;;;29.26;67.61;98975.53;6216524;23;8790;-74
2021/09/17 01:52:43;;;;;;;;;1.40;1.40;;;;;29.29;67.57;98972.03;6216075;23;8803;-74
2021/09/17 01:55:11;;;;;;;;;1.20;1.20;;;;;29.32;67.42;98984.84;6216410;23;8799;-75
2021/09/17 01:57:40;;;;;;;;;2.00;2.00;;;;;29.37;67.30;98981.75;6216035;23;8805;-74
2021/09/17 02:00:10;;;;;;;;;1.80;1.80;;;;;29.38;67.02;98983.31;6216423;23;9548;-75
2021/09/17 02:02:39;;;;;;;;;1.40;1.40;;;;;29.45;66.93;98983.34;6216027;23;8800;-75
2021/09/17 02:05:09;;;;;;;;;2.80;2.80;;;;;29.46;67.34;98982.97;6215850;23;8810;-75
2021/09/17 02:07:37;;;;;;;;;2.40;2.40;;;;;29.50;66.82;98986.47;6215850;23;8965;-75
2021/09/17 02:10:08;;;;;;;;;0.80;0.80;;;;;29.57;66.96;98984.91;6216099;23;8954;-75
2021/09/17 02:12:37;;;;;;;;;1.80;1.80;;;;;29.60;66.68;98987.63;6216079;23;8807;-75
2021/09/17 02:15:08;;;;;;;;;1.60;1.60;;;;;29.67;66.26;98990.34;6215866;23;8918;-75
2021/09/17 02:17:37;;;;;;;;;0.60;0.60;;;;;29.71;66.17;98982.19;6216014;23;8787;-75
2021/09/17 02:20:07;;;;;;;;;0.60;0.60;;;;;29.73;66.50;98982.59;6215747;23;8811;-75
2021/09/17 02:22:36;;;;;;;;;0.60;0.60;;;;;29.80;66.10;98986.06;6215833;23;8864;-75
2021/09/17 02:25:06;;;;;;;;;1.80;1.80;;;;;29.84;66.62;98994.22;6215755;23;8839;-75
2021/09/17 02:27:34;;;;;;;;;1.40;1.40;;;;;29.85;65.91;98990.34;6215947;23;8813;-75
2021/09/17 02:30:08;;;;;;;;;2.20;2.20;;;;;29.90;66.06;98992.69;6216796;23;8803;-75
2021/09/17 02:32:37;;;;;;;;;1.60;1.60;;;;;29.92;65.35;98989.53;6215710;23;8779;-74
2021/09/17 02:35:08;;;;;;;;;2.60;2.60;;;;;29.93;66.17;98985.66;6215653;23;8825;-74
2021/09/17 02:37:36;;;;;;;;;2.60;2.60;;;;;29.92;65.36;98984.09;6215821;23;8791;-74
2021/09/17 02:40:06;;;;;;;;;2.00;2.00;;;;;29.88;65.96;98984.13;6215647;23;8799;-74
2021/09/17 02:42:35;;;;;;;;;0.80;0.80;;;;;29.87;65.47;98982.59;6215629;23;8797;-74
2021/09/17 02:45:06;;;;;;;;;1.60;1.60;;;;;29.87;65.35;98985.31;6215237;23;8806;-75
2021/09/17 02:47:35;;;;;;;;;2.00;2.00;;;;;29.82;65.75;98986.47;6215388;23;9501;-74
2021/09/17 02:50:04;;;;;;;;;0.00;0.00;;;;;29.89;65.08;98995.78;6215882;23;8795;-74
2021/09/17 02:52:33;;;;;;;;;2.40;2.40;;;;;29.91;65.56;98990.72;6215559;23;8798;-75
2021/09/17 02:55:03;;;;;;;;;0.60;0.60;;;;;29.94;64.51;98993.44;6215458;23;8788;-75
2021/09/17 02:57:32;;;;;;;;;1.00;1.00;;;;;29.96;64.41;98999.25;6216594;23;8806;-75
2021/09/17 03:00:00;;;;;;;;;0.80;0.80;;;;;29.99;64.37;98992.25;6215550;23;8804;-75
2021/09/17 03:02:29;;;;;;;;;0.80;0.80;;;;;30.06;63.94;98995.00;6215606;23;8795;-75
2021/09/17 03:04:58;;;;;;;;;1.60;1.60;;;;;30.10;64.11;98995.78;6165302;23;8830;-75
2021/09/17 03:07:27;;;;;;;;;1.00;1.00;;;;;30.16;63.87;98994.97;6215520;23;8861;-75
2021/09/17 03:09:56;;;;;;;;;1.40;1.40;;;;;30.24;63.61;99000.41;6215235;23;8823;-74
2021/09/17 03:12:24;;;;;;;;;2.20;2.20;;;;;30.29;63.96;98992.63;6215338;23;8929;-75
2021/09/17 03:14:53;;;;;;;;;1.40;1.40;;;;;30.37;63.36;98996.88;6215383;23;8799;-74
2021/09/17 03:17:21;;;;;;;;;2.00;2.00;;;;;30.43;63.37;98994.53;6215247;23;8818;-74
2021/09/17 03:19:50;;;;;;;;;1.60;1.60;;;;;30.45;63.70;98986.75;6215379;23;8787;-75
2021/09/17 03:22:18;;;;;;;;;0.80;0.80;;;;;30.58;63.30;98981.69;6189375;23;8878;-75
2021/09/17 03:24:47;;;;;;;;;1.00;1.00;;;;;30.58;63.17;98974.28;6215236;23;8861;-74
2021/09/17 03:27:15;;;;;;;;;1.00;1.00;;;;;30.65;62.70;98976.22;6215739;23;8789;-75
2021/09/17 03:29:43;;;;;;;;;0.20;0.20;;;;;30.67;61.96;98974.66;6215151;23;8823;-75
2021/09/17 03:32:12;;;;;;;;;1.00;1.00;;;;;30.70;62.41;98970.34;6215242;23;8799;-74
2021/09/17 03:34:40;;;;;;;;;0.80;0.80;;;;;30.73;62.55;98975.78;6215663;23;8807;-75
2021/09/17 03:37:09;;;;;;;;;1.00;1.00;;;;;30.69;60.68;98960.63;6214588;23;8875;-74
2021/09/17 03:39:37;;;;;;;;;1.00;1.00;;;;;30.74;61.25;98977.34;6215442;23;8803;-75
2021/09/17 03:42:07;;;;;;;;;0.80;0.80;;;;;30.79;61.81;98966.03;6214985;23;8913;-75
2021/09/17 03:44:36;;;;;;;;;2.40;2.40;;;;;30.81;62.79;98962.91;6189919;23;8845;-75
2021/09/17 03:47:05;;;;;;;;;0.80;0.80;;;;;30.83;61.51;98972.25;6214982;23;8799;-75
2021/09/17 03:49:34;;;;;;;;;1.00;1.00;;;;;30.83;62.40;98971.47;6214844;23;9548;-75
2021/09/17 03:52:03;;;;;;;;;0.60;0.60;;;;;30.81;61.90;98973.81;6215538;23;8806;-75
2021/09/17 03:54:31;;;;;;;;;1.00;1.00;;;;;30.79;62.88;98970.72;6218154;23;8799;-75
2021/09/17 03:57:00;;;;;;;;;1.20;1.20;;;;;30.74;63.10;98963.72;6216864;23;8791;-75
2021/09/17 03:59:28;;;;;;;;;1.00;1.00;;;;;30.74;62.40;98973.84;6189207;23;8791;-75
2021/09/17 04:02:00;;;;;;;;;0.80;0.80;;;;;30.74;61.67;98973.84;6214847;23;8799;-75
2021/09/17 04:04:29;;;;;;;;;0.80;0.80;;;;;30.76;61.67;98972.28;6214754;23;8795;-75
2021/09/17 04:06:58;;;;;;;;;1.20;1.20;;;;;30.82;62.19;98975.38;6214719;23;8882;-75
2021/09/17 04:09:26;;;;;;;;;1.40;1.40;;;;;30.85;62.16;98966.41;6214740;23;8819;-75
2021/09/17 04:11:55;;;;;;;;;1.80;1.80;;;;;30.87;61.00;98966.78;6214797;23;8806;-75
2021/09/17 04:14:25;;;;;;;;;1.60;1.60;;;;;30.88;61.22;98956.66;6215020;23;9535;-75
2021/09/17 04:16:53;;;;;;;;;0.80;0.80;;;;;30.95;60.81;98959.34;6214770;23;8791;-75
2021/09/17 04:19:22;;;;;;;;;1.60;1.20;;;;;30.97;60.97;98955.06;6214742;23;8795;-75
2021/09/17 04:21:50;;;;;;;;;2.60;2.60;;;;;31.01;59.70;98955.81;6214941;23;8889;-74
2021/09/17 04:24:19;;;;;;;;;1.40;1.40;;;;;31.05;61.91;98950.34;6214569;23;8803;-75
2021/09/17 04:26:47;;;;;;;;;2.20;2.20;;;;;31.06;61.08;98941.75;6214657;23;8889;-75
2021/09/17 04:29:16;;;;;;;;;1.20;1.20;;;;;31.09;61.57;98934.75;6214285;23;8882;-75
2021/09/17 04:31:44;;;;;;;;;1.40;1.40;;;;;31.13;60.91;98939.03;6188481;23;8791;-75
2021/09/17 04:34:13;;;;;;;;;0.60;0.60;;;;;31.19;60.29;98933.16;6214179;23;8811;-75
2021/09/17 04:36:43;;;;;;;;;1.20;1.20;;;;;31.26;60.30;98933.84;6214457;23;8779;-75
2021/09/17 04:39:12;;;;;;;;;2.00;2.00;;;;;31.33;60.14;98933.78;6214524;23;8791;-75
2021/09/17 04:41:41;;;;;;;;;2.00;2.00;;;;;31.41;60.07;98929.84;6214238;23;8791;-75
2021/09/17 04:44:09;;;;;;;;;1.20;1.20;;;;;31.47;60.12;98927.47;6213936;23;8795;-75
2021/09/17 04:46:38;;;;;;;;;2.00;2.00;;;;;31.45;59.54;98925.13;6213761;23;8906;-75
2021/09/17 04:49:06;;;;;;;;;1.60;1.60;;;;;31.53;61.54;98927.81;6214146;23;8823;-75
2021/09/17 04:51:35;;;;;;;;;1.00;1.00;;;;;31.51;60.40;98935.59;6214115;23;8807;-75
2021/09/17 04:54:04;;;;;;;;;1.80;1.80;;;;;31.46;60.96;98926.69;6214494;23;8825;-75
2021/09/17 04:56:32;;;;;;;;;2.00;2.00;;;;;31.42;59.98;98927.88;6214108;23;8803;-74
2021/09/17 04:59:01;;;;;;;;;2.60;2.60;;;;;31.41;60.36;98913.47;6213958;23;8873;-75
2021/09/17 05:01:29;;;;;;;;;1.20;1.20;;;;;31.41;60.85;98907.25;6214963;23;8881;-75
2021/09/17 05:03:58;;;;;;;;;0.60;0.60;;;;;31.41;59.84;98902.56;6214094;23;8811;-75
2021/09/17 05:06:30;;;;;;;;;2.20;2.20;;;;;31.42;61.12;98912.31;6214268;23;8881;-75
2021/09/17 05:09:00;;;;;;;;;2.00;2.00;;;;;31.37;60.09;98910.00;6215504;23;8807;-75
2021/09/17 05:11:28;;;;;;;;;1.40;1.40;;;;;31.40;59.92;98897.53;6215824;23;8905;-75
2021/09/17 05:13:57;;;;;;;;;1.40;1.40;;;;;31.41;59.60;98896.34;6214912;23;8815;-75
2021/09/17 05:16:25;;;;;;;;;1.40;1.40;;;;;31.45;60.76;98888.91;6216859;23;8772;-75
2021/09/17 05:18:54;;;;;;;;;2.80;2.80;;;;;31.47;60.00;98889.28;6216385;23;9516;-75
2021/09/17 05:21:22;;;;;;;;;2.00;2.00;;;;;31.45;58.47;98886.97;6215825;23;8789;-75
2021/09/17 05:23:51;;;;;;;;;1.60;1.60;;;;;31.41;58.90;98880.75;6215365;23;8809;-75
2021/09/17 05:26:19;;;;;;;;;2.00;2.00;;;;;31.42;59.49;98884.25;6215482;23;8791;-75
2021/09/17 05:28:49;;;;;;;;;2.60;2.60;;;;;31.36;60.38;98870.28;6215467;23;8791;-76
2021/09/17 05:31:17;;;;;;;;;1.00;1.00;;;;;31.32;60.11;98866.06;6215557;23;8885;-78
2021/09/17 05:33:46;;;;;;;;;1.00;1.00;;;;;31.28;59.51;98857.91;6215428;23;9544;-78
2021/09/17 05:36:15;;;;;;;;;0.60;0.60;;;;;31.29;59.35;98859.44;6226234;23;8811;-77
2021/09/17 05:38:43;;;;;;;;;2.20;2.20;;;;;31.34;59.32;98850.06;6224150;23;8822;-79
2021/09/17 05:41:16;;;;;;;;;0.80;0.80;;;;;31.39;59.61;98855.09;6216433;23;8811;-78
2021/09/17 05:43:45;;;;;;;;;1.40;1.40;;;;;31.43;59.71;98850.38;6216760;23;8787;-79
2021/09/17 05:46:14;;;;;;;;;0.80;0.80;;;;;31.47;59.49;98845.66;6215399;23;8807;-79
2021/09/17 05:48:42;;;;;;;;;2.00;2.00;;;;;31.50;60.59;98850.31;6215240;23;8885;-78
2021/09/17 05:51:11;;;;;;;;;2.60;1.80;;;;;31.47;59.47;98843.72;6215784;23;8886;-76
2021/09/17 05:54:00;;;;;;;;;1.00;1.00;;;;;31.45;60.49;98826.22;6213703;23;8823;-76
2021/09/17 05:56:28;;;;;;;;;1.80;1.80;;;;;31.44;59.77;98827.38;6214728;23;8833;-77
2021/09/17 05:58:57;;;;;;;;;1.40;1.40;;;;;31.44;60.04;98822.72;6215302;23;8819;-76
2021/09/17 06:01:25;;;;;;;;;1.00;1.00;;;;;31.44;59.72;98813.75;6214656;23;8807;-76
2021/09/17 06:03:54;;;;;;;;;1.00;1.00;;;;;31.47;59.73;98812.94;6215352;23;8795;-76
2021/09/17 06:06:23;;;;;;;;;2.00;2.00;;;;;31.41;59.63;98811.84;6189641;23;8803;-76
2021/09/17 06:08:51;;;;;;;;;1.80;1.80;;;;;31.46;61.01;98811.41;6215301;23;8817;-76
2021/09/17 06:11:20;;;;;;;;;2.40;2.40;;;;;31.43;60.19;98802.06;6216105;23;8872;-76
2021/09/17 06:13:49;;;;;;;;;0.60;0.60;;;;;31.38;59.70;98794.34;6215540;23;8779;-76
2021/09/17 06:16:17;;;;;;;;;2.00;2.00;;;;;31.34;60.57;98781.94;6215779;23;8819;-76
2021/09/17 06:18:48;;;;;;;;;1.00;1.00;;;;;31.39;60.52;98793.16;6215578;23;8822;-76
2021/09/17 06:21:16;;;;;;;;;2.60;2.60;;;;;31.38;60.22;98782.66;6215836;23;8796;-75
2021/09/17 06:23:45;;;;;;;;;3.20;3.20;;;;;31.40;59.48;98778.34;6216166;23;8783;-75
2021/09/17 06:26:13;;;;;;;;;3.60;3.60;;;;;31.37;60.77;98779.16;6215905;23;8845;-76
2021/09/17 06:28:42;;;;;;;;;2.00;2.00;;;;;31.28;60.69;98764.47;6217168;23;8890;-76
2021/09/17 06:31:10;;;;;;;;;2.00;2.00;;;;;31.28;59.30;98767.19;6216708;23;8783;-76
2021/09/17 06:33:39;;;;;;;;;2.60;2.60;;;;;31.22;59.20;98760.63;6215544;23;8861;-76
2021/09/17 06:36:07;;;;;;;;;1.80;1.80;;;;;31.15;60.61;98756.06;6215583;23;8819;-76
2021/09/17 06:38:36;;;;;;;;;2.00;2.00;;;;;31.05;60.48;98752.22;6215637;23;8805;-76
2021/09/17 06:41:04;;;;;;;;;3.00;3.00;;;;;31.06;60.86;98751.03;6215466;23;9572;-76
2021/09/17 06:43:33;;;;;;;;;2.00;2.00;;;;;31.11;59.20;98747.09;6215421;23;8775;-76
2021/09/17 06:46:03;;;;;;;;;2.80;2.80;;;;;31.11;59.97;98747.09;6189163;23;9513;-76
2021/09/17 06:48:31;;;;;;;;;1.80;1.80;;;;;31.09;60.84;98742.06;6213746;23;8791;-82
2021/09/17 06:51:01;;;;;;;;;2.00;2.00;;;;;31.11;60.32;98739.72;6213984;23;8803;-78
2021/09/17 06:53:29;;;;;;;;;2.00;2.00;;;;;31.12;60.36;98733.06;6188444;23;8795;-78
2021/09/17 06:55:59;;;;;;;;;1.60;1.60;;;;;31.21;59.85;98726.38;6215655;23;8827;-82
2021/09/17 06:58:31;;;;;;;;;2.20;2.20;;;;;31.28;58.80;98720.84;6216462;23;8822;-82
2021/09/17 07:01:01;;;;;;;;;1.80;1.80;;;;;31.30;60.10;98715.78;6215577;23;8819;-75
2021/09/17 07:03:30;;;;;;;;;1.80;1.80;;;;;31.34;61.03;98711.06;6215311;23;8802;-78
2021/09/17 07:05:59;;;;;;;;;1.80;1.80;;;;;31.38;60.02;98703.63;6213426;23;8799;-80
2021/09/17 07:08:28;;;;;;;;;1.40;1.40;;;;;31.47;59.86;98698.44;6212871;23;9563;-78
2021/09/17 07:10:57;;;;;;;;;0.80;0.80;;;;;31.56;59.64;98700.69;6213988;23;8873;-79
2021/09/17 07:13:26;;;;;;;;;2.00;2.00;;;;;31.65;59.90;98695.50;6212960;23;8913;-77
2021/09/17 07:15:54;;;;;;;;;1.80;1.80;;;;;31.67;58.80;98690.41;6213489;23;8788;-79
2021/09/17 07:18:23;;;;;;;;;1.00;1.00;;;;;31.71;60.05;98685.72;6214173;23;8826;-78
2021/09/17 07:20:54;;;;;;;;;1.60;1.60;;;;;31.62;59.77;98685.41;6220861;23;8818;-81
2021/09/17 07:23:23;;;;;;;;;3.20;3.20;;;;;31.54;58.69;98667.59;6215742;23;8858;-76
2021/09/17 07:25:51;;;;;;;;;0.80;0.80;;;;;31.50;58.24;98666.88;6214023;23;8803;-82
2021/09/17 07:28:20;;;;;;;;;1.00;1.00;;;;;31.47;58.40;98669.22;6190121;23;8783;-77
2021/09/17 07:30:49;;;;;;;;;0.80;0.80;;;;;31.42;60.19;98666.19;6214770;23;8897;-80
2021/09/17 07:33:17;;;;;;;;;2.60;2.60;;;;;31.33;60.99;98655.78;6213999;23;8803;-78
2021/09/17 07:35:46;;;;;;;;;1.60;1.60;;;;;31.23;59.21;98650.44;6213084;23;8803;-82
2021/09/17 07:38:15;;;;;;;;;2.00;2.00;;;;;31.11;58.82;98638.88;6213710;23;8889;-81
2021/09/17 07:40:44;;;;;;;;;1.00;1.00;;;;;31.07;58.25;98651.78;6213227;23;8779;-76
2021/09/17 07:43:12;;;;;;;;;1.40;1.40;;;;;31.04;59.07;98638.97;6214000;23;8921;-76
2021/09/17 07:45:41;;;;;;;;;1.40;1.40;;;;;31.08;58.81;98636.22;6213493;23;8925;-81
2021/09/17 07:48:10;;;;;;;;;2.00;2.00;;;;;31.09;60.83;98630.34;6214410;23;8834;-75
2021/09/17 07:50:39;;;;;;;;;1.60;1.60;;;;;31.18;60.82;98635.34;6214690;23;8846;-76
2021/09/17 07:53:08;;;;;;;;;1.00;1.00;;;;;31.20;59.43;98634.94;6213249;23;8815;-76
2021/09/17 07:55:37;;;;;;;;;1.80;1.80;;;;;31.21;59.80;98631.00;6212604;23;8803;-77
2021/09/17 07:58:06;;;;;;;;;1.00;1.00;;;;;31.21;60.68;98633.72;6219378;23;8814;-78
2021/09/17 08:00:34;;;;;;;;;1.00;1.00;;;;;31.13;60.51;98622.13;6215513;23;8799;-78
2021/09/17 08:03:04;;;;;;;;;1.80;1.80;;;;;31.10;60.85;98628.41;6214811;23;8795;-79
2021/09/17 08:05:33;;;;;;;;;1.00;1.00;;;;;31.01;60.36;98623.44;6212333;23;8921;-74
2021/09/17 08:08:02;;;;;;;;;2.20;2.20;;;;;30.95;61.26;98613.38;6185892;23;8779;-75
2021/09/17 08:10:30;;;;;;;;;1.80;1.80;;;;;30.94;60.58;98617.28;6212370;23;8807;-75
2021/09/17 08:12:59;;;;;;;;;1.40;1.40;;;;;30.88;60.64;98606.06;6213099;23;8803;-77
2021/09/17 08:15:27;;;;;;;;;1.80;1.80;;;;;30.88;60.88;98597.13;6212071;23;8838;-73
2021/09/17 08:17:56;;;;;;;;;3.20;3.20;;;;;30.85;61.04;98592.50;6186909;23;8788;-71
2021/09/17 08:20:25;;;;;;;;;6.40;6.40;;;;;30.90;61.64;98595.53;6214676;23;8818;-76
2021/09/17 08:22:54;;;;;;;;;2.00;2.00;;;;;30.98;61.44;98590.78;6188021;23;9529;-75
2021/09/17 08:25:23;;;;;;;;;1.20;1.20;;;;;31.02;61.03;98589.56;6214865;23;8787;-77
2021/09/17 08:27:53;;;;;;;;;1.40;1.40;;;;;31.03;59.74;98582.16;6215738;23;8815;-76
2021/09/17 08:30:22;;;;;;;;;0.80;0.80;;;;;31.06;59.71;98584.06;6214498;23;8815;-73
2021/09/17 08:32:50;;;;;;;;;1.60;1.60;;;;;31.05;59.48;98580.56;6213583;23;8873;-77
2021/09/17 08:35:19;;;;;;;;;0.80;0.80;;;;;31.03;60.92;98580.22;6213666;23;8800;-73
2021/09/17 08:37:48;;;;;;;;;2.00;2.00;;;;;31.07;59.51;98575.50;6212996;23;8823;-78
2021/09/17 08:40:17;;;;;;;;;1.00;1.00;;;;;31.18;59.91;98577.34;6214135;23;9514;-75
2021/09/17 08:42:46;;;;;;;;;1.80;1.80;;;;;31.21;58.71;98574.53;6213539;23;8841;-74
2021/09/17 08:45:14;;;;;;;;;3.00;3.00;;;;;31.26;59.20;98571.38;6210991;23;8807;-74
2021/09/17 08:47:51;;;;;;;;;1.60;1.60;;;;;31.30;59.06;98574.06;6211970;23;9513;-75
2021/09/17 08:50:21;;;;;;;;;2.00;2.00;;;;;31.33;59.44;98570.50;6211210;23;8842;-75
2021/09/17 08:52:50;;;;;;;;;1.60;1.60;;;;;31.33;59.31;98567.78;6211959;23;9541;-76
2021/09/17 08:55:19;;;;;;;;;1.80;1.80;;;;;31.38;58.81;98572.78;6212230;23;8823;-75
2021/09/17 08:57:48;;;;;;;;;0.00;0.00;;;;;31.40;58.04;98564.97;6211746;23;8783;-72
2021/09/17 09:00:37;;;;;;;;;1.80;1.80;;;;;31.42;60.76;98570.78;6211872;23;8820;-72
2021/09/17 09:03:09;;;;;;;;;1.80;1.80;;;;;31.38;59.14;98568.09;6211890;23;8815;-72
2021/09/17 09:05:41;;;;;;;;;1.00;1.00;;;;;31.33;57.58;98568.56;6211853;23;8911;-74
2021/09/17 09:08:10;;;;;;;;;3.00;1.00;;;;;31.33;60.17;98573.22;6211597;23;8806;-75
2021/09/17 09:10:38;;;;;;;;;0.80;0.80;;;;;31.27;57.28;98574.88;6211372;23;8826;-73
2021/09/17 09:13:07;;;;;;;;;1.00;1.00;;;;;31.24;60.12;98581.91;6211589;23;9089;-76
2021/09/17 09:15:36;;;;;;;;;1.80;1.80;;;;;31.12;59.55;98575.03;6211440;23;8823;-73
2021/09/17 09:18:12;;;;;;;;;2.00;2.00;;;;;31.15;58.04;98587.09;6211429;23;8865;-73
2021/09/17 09:20:47;;;;;;;;;0.80;0.80;;;;;31.14;60.25;98588.28;6210993;23;8800;-72
2021/09/17 09:23:19;;;;;;;;;2.00;2.00;;;;;31.10;60.35;98593.75;6211443;23;8925;-74
2021/09/17 09:26:08;;;;;;;;;0.20;0.20;;;;;31.08;60.84;98587.94;6211470;23;8815;-73
2021/09/17 09:28:47;;;;;;;;;4.20;4.20;;;;;31.04;60.74;98579.03;6214867;23;8795;-74
2021/09/17 09:31:19;;;;;;;;;1.80;0.40;;;;;31.05;60.47;98588.75;6211479;23;8830;-75
2021/09/17 09:33:49;;;;;;;;;2.60;2.60;;;;;31.04;60.39;98589.94;6212520;23;8800;-75
2021/09/17 09:36:25;;;;;;;;;3.00;3.00;;;;;31.04;60.60;98587.22;6212797;23;8823;-76
2021/09/17 09:38:57;;;;;;;;;3.00;3.00;;;;;31.06;60.63;98590.28;6207611;23;8807;-74
2021/09/17 09:41:35;;;;;;;;;2.80;2.80;;;;;31.03;60.40;98582.16;6187935;23;8869;-79
2021/09/17 09:44:16;;;;;;;;;3.00;3.00;;;;;31.04;60.53;98592.66;6212654;23;8799;-77
2021/09/17 09:46:47;;;;;;;;;2.60;2.60;;;;;30.83;60.34;98565.66;6210379;23;8788;-78
2021/09/17 09:49:26;;;;;;;;;3.20;3.20;;;;;30.99;60.15;98587.66;6209181;23;8799;-74
2021/09/17 09:52:08;;;;;;;;;3.80;3.80;;;;;30.96;60.18;98580.28;6211029;23;8807;-78
2021/09/17 09:54:37;;;;;;;;;4.40;4.40;;;;;30.91;59.97;98585.41;6213239;23;8898;-78
2021/09/17 09:57:06;;;;;;;;;5.60;5.60;;;;;30.89;60.20;98580.38;6186827;23;8795;-74
2021/09/17 09:59:38;;;;;;;;;3.80;3.80;;;;;30.87;60.10;98580.00;6213296;23;8831;-77
2021/09/17 10:02:07;;;;;;;;;3.00;3.00;;;;;30.84;60.31;98589.00;6187851;23;9481;-77
2021/09/17 10:04:38;;;;;;;;;2.40;2.40;;;;;30.80;60.42;98594.47;6212341;23;8811;-75
2021/09/17 10:07:18;;;;;;;;;3.00;3.00;;;;;30.78;60.20;98593.34;6189537;23;8811;-78
2021/09/17 10:09:47;;;;;;;;;3.40;3.40;;;;;30.68;60.34;98594.22;6212043;23;8830;-78
2021/09/17 10:12:16;;;;;;;;;3.00;3.00;;;;;30.69;60.37;98593.03;6212698;23;8803;-78
2021/09/17 10:14:47;;;;;;;;;3.60;3.60;;;;;30.63;59.94;98598.16;6213472;23;8803;-77
2021/09/17 10:17:26;;;;;;;;;5.40;5.40;;;;;30.62;60.24;98595.84;6214351;23;8799;-74
2021/09/17 10:19:59;;;;;;;;;3.40;3.40;;;;;30.57;60.51;98593.53;6214924;23;8783;-73
2021/09/17 10:22:40;;;;;;;;;5.80;5.80;;;;;30.57;60.20;98598.97;6215037;23;8902;-74
2021/09/17 10:25:25;;;;;;;;;5.20;5.20;;;;;30.54;60.57;98603.28;6213988;23;8827;-74
2021/09/17 10:28:08;;;;;;;;;4.20;4.20;;;;;30.54;60.31;98606.00;6214966;23;8821;-73
2021/09/17 10:30:40;;;;;;;;;4.00;3.00;;;;;30.54;60.86;98597.06;6214498;23;8800;-77
2021/09/17 10:33:26;;;;;;;;;2.00;2.00;;;;;30.53;60.45;98601.72;6214585;23;8792;-74
2021/09/17 10:35:55;;;;;;;;;2.00;2.00;;;;;30.51;60.18;98604.84;6214777;23;8784;-74
2021/09/17 10:38:28;;;;;;;;;3.40;3.40;;;;;30.48;60.06;98602.16;6213683;23;8830;-73
2021/09/17 10:41:05;;;;;;;;;2.20;2.20;;;;;30.40;60.20;98606.88;6214348;23;8796;-73
2021/09/17 10:43:40;;;;;;;;;2.60;2.60;;;;;30.42;60.38;98620.09;6214968;23;8803;-73
2021/09/17 10:46:36;;;;;;;;;2.00;2.00;;;;;30.32;60.63;98624.44;6213984;23;8829;-73
2021/09/17 10:49:05;;;;;;;;;2.00;2.00;;;;;30.23;60.67;98624.13;6214545;23;8886;-73
2021/09/17 10:51:42;;;;;;;;;3.00;3.00;;;;;30.15;60.59;98617.19;6214761;23;8803;-74
2021/09/17 10:54:19;;;;;;;;;2.00;2.00;;;;;30.11;61.23;98624.63;6215960;23;8813;-73
2021/09/17 10:57:05;;;;;;;;;4.00;4.00;;;;;30.02;60.95;98618.84;6216106;23;8823;-72
2021/09/17 10:59:42;;;;;;;;;5.60;5.60;;;;;29.98;61.16;98632.44;6215491;23;8826;-72
2021/09/17 11:02:11;;;;;;;;;4.80;4.80;;;;;29.92;61.37;98625.88;6216409;23;8799;-72
2021/09/17 11:04:46;;;;;;;;;3.40;3.40;;;;;29.90;61.45;98633.69;6215117;23;8814;-72
2021/09/17 11:07:34;;;;;;;;;5.00;5.00;;;;;29.85;61.71;98629.44;6215478;23;9554;-72
2021/09/17 11:10:04;;;;;;;;;3.80;3.80;;;;;29.82;61.67;98643.06;6215264;23;8813;-72
2021/09/17 11:12:38;;;;;;;;;3.80;3.80;;;;;29.79;61.84;98644.63;6215355;23;8811;-72
2021/09/17 11:15:15;;;;;;;;;3.20;3.20;;;;;29.78;61.60;98637.66;6215328;23;8815;-72
2021/09/17 11:18:02;;;;;;;;;3.80;3.80;;;;;29.76;62.01;98639.22;6215396;23;8869;-72
2021/09/17 11:20:31;;;;;;;;;4.00;4.00;;;;;29.74;61.96;98642.34;6215358;23;8821;-72
2021/09/17 11:23:06;;;;;;;;;3.60;3.00;;;;;29.72;62.05;98650.09;6215518;23;8788;-72
2021/09/17 11:25:38;;;;;;;;;2.60;2.60;;;;;29.71;61.92;98648.56;6215893;23;8788;-72
2021/09/17 11:28:29;;;;;;;;;4.00;4.00;;;;;29.70;62.05;98657.88;6215233;23;8807;-72
2021/09/17 11:31:17;;;;;;;;;3.20;3.20;;;;;29.70;61.20;98655.16;6215052;23;8901;-72
2021/09/17 11:33:56;;;;;;;;;4.00;4.00;;;;;29.69;62.02;98656.34;6214964;23;8823;-72
2021/09/17 11:36:39;;;;;;;;;3.20;3.20;;;;;29.72;61.72;98665.66;6215177;23;8799;-72
2021/09/17 11:39:26;;;;;;;;;4.00;4.00;;;;;29.70;61.99;98673.44;6215185;23;8783;-72
2021/09/17 11:41:59;;;;;;;;;3.60;3.60;;;;;29.66;61.96;98675.38;6215397;23;8819;-71
2021/09/17 11:44:33;;;;;;;;;4.00;4.00;;;;;29.60;62.42;98676.97;6215099;23;8800;-72
2021/09/17 11:47:12;;;;;;;;;4.60;4.60;;;;;29.55;62.87;98680.88;6214921;23;8788;-72
2021/09/17 11:49:43;;;;;;;;;4.00;4.00;;;;;29.48;62.15;98686.34;6214965;23;8784;-73
2021/09/17 11:52:17;;;;;;;;;4.60;4.60;;;;;29.42;62.83;98682.47;6214810;23;8787;-72
2021/09/17 11:54:59;;;;;;;;;5.75;5.75;;;;;29.35;62.51;98683.25;6214902;23;8888;-72
2021/09/17 11:57:36;;;;;;;;;5.40;5.40;;;;;29.27;62.82;98683.66;6214904;23;8886;-72